Maine, Minnesota
Current Conditions -  °F | °C
As of 7:54 PM on Sunday 21 Dec 2014 (Local Time) from KFFM Reporting Station
Haze Haze  
Wind Chill: 24°   Ceiling: 400
Heat Index: 34°   Visibility: 2mi
Dew Point: 34°   Wind: 15mph
Humidity: 100%   Direction: 150°SSE
Pressure: 29.61"   Gusts: NA
Location:  46.3249°N, 95.8405°W
Report Text: KFFM 220154Z AUTO 15013KT 2SM BR OVC004 01/01 A2961 RMK AO2
Loading
Personal Weather Stations






























Interactive Weather Map New forecast layout! Learn more

10-Day Weather Forecast

Advertisements
Track Severe Weather on mobile